createdAt,value
2017-05-05T00:02:47.586Z,95.457
2017-05-05T00:05:41.838Z,95.358
2017-05-05T00:08:36.061Z,95.354
2017-05-05T00:11:30.393Z,95.380
2017-05-05T00:14:24.694Z,95.262
2017-05-05T00:17:18.898Z,95.481
2017-05-05T00:20:13.716Z,95.383
2017-05-05T00:23:09.704Z,95.479
2017-05-05T00:26:02.319Z,95.373
2017-05-05T00:28:56.686Z,95.393
2017-05-05T00:31:51.161Z,95.389
2017-05-05T00:34:47.141Z,95.219
2017-05-05T00:37:39.786Z,95.328
2017-05-05T00:40:34.072Z,95.274
2017-05-05T00:43:28.372Z,95.152
2017-05-05T00:46:24.877Z,95.251
2017-05-05T00:49:16.850Z,95.175
2017-05-05T00:52:11.137Z,95.382
2017-05-05T00:55:05.422Z,95.433
2017-05-05T00:57:59.682Z,95.308
2017-05-05T01:00:53.873Z,95.454
2017-05-05T01:03:49.822Z,95.435
2017-05-05T01:06:44.237Z,95.429
2017-05-05T01:09:36.578Z,95.355
2017-05-05T01:12:32.584Z,95.430
2017-05-05T01:15:26.902Z,95.551
2017-05-05T01:18:19.462Z,95.490
2017-05-05T01:21:13.770Z,95.449
2017-05-05T01:24:07.978Z,95.520
2017-05-05T01:27:02.226Z,95.239
2017-05-05T01:29:56.555Z,95.584
2017-05-05T01:32:50.780Z,95.435
2017-05-05T01:35:45.104Z,95.655
2017-05-05T01:38:39.471Z,95.698
2017-05-05T01:41:33.700Z,95.655
2017-05-05T01:44:27.986Z,95.808
2017-05-05T01:47:22.296Z,95.773
2017-05-05T01:50:16.623Z,95.839
2017-05-05T01:53:10.971Z,95.861
2017-05-05T01:56:05.125Z,95.988
2017-05-05T01:58:59.446Z,95.947
2017-05-05T02:01:53.791Z,95.808
2017-05-05T02:04:48.082Z,96.129
2017-05-05T02:07:42.279Z,95.833
2017-05-05T02:10:36.604Z,96.012
2017-05-05T02:13:30.936Z,95.884
2017-05-05T02:16:27.126Z,95.950
2017-05-05T02:19:19.632Z,95.962
2017-05-05T02:22:13.960Z,95.993
2017-05-05T02:25:08.211Z,96.036
2017-05-05T02:28:02.506Z,96.083
2017-05-05T02:30:56.783Z,96.154
2017-05-05T02:33:51.126Z,95.974
2017-05-05T02:36:45.324Z,96.007
2017-05-05T02:39:39.579Z,96.014
2017-05-05T02:42:33.862Z,95.877
2017-05-05T02:45:28.103Z,95.958
2017-05-05T02:48:22.405Z,95.930
2017-05-05T02:51:16.563Z,96.000
2017-05-05T02:54:10.779Z,96.005
2017-05-05T02:57:05.011Z,96.106
2017-05-05T02:59:59.387Z,96.043
2017-05-05T03:02:53.615Z,96.058
2017-05-05T03:05:47.864Z,96.095
2017-05-05T03:08:42.138Z,96.071
2017-05-05T03:11:36.460Z,96.022
2017-05-05T03:14:32.423Z,96.235
2017-05-05T03:17:25.089Z,96.016
2017-05-05T03:20:19.841Z,95.972
2017-05-05T03:23:14.158Z,96.023
2017-05-05T03:26:08.359Z,95.911
2017-05-05T03:29:02.620Z,95.988
2017-05-05T03:31:56.835Z,95.849
2017-05-05T03:34:51.057Z,95.931
2017-05-05T03:37:47.207Z,96.066
2017-05-05T03:40:39.733Z,95.946
2017-05-05T03:43:34.047Z,96.052
2017-05-05T03:46:28.262Z,95.886
2017-05-05T03:49:22.548Z,95.908
2017-05-05T03:52:16.749Z,96.004
2017-05-05T03:55:10.999Z,95.941
2017-05-05T03:58:05.249Z,95.982
2017-05-05T04:00:59.527Z,96.007
2017-05-05T04:03:54.292Z,95.944
2017-05-05T04:06:48.654Z,96.044
2017-05-05T04:09:42.849Z,95.895
2017-05-05T04:12:37.214Z,95.930
2017-05-05T04:15:31.493Z,95.875
2017-05-05T04:18:25.775Z,95.951
2017-05-05T04:21:19.969Z,95.910
2017-05-05T04:24:14.298Z,95.919
2017-05-05T04:27:08.468Z,95.898
2017-05-05T04:30:02.724Z,95.797
2017-05-05T04:32:57.031Z,95.874
2017-05-05T04:35:53.091Z,95.937
2017-05-05T04:38:45.546Z,96.178
2017-05-05T04:41:39.723Z,95.970
2017-05-05T04:44:33.982Z,95.815
2017-05-05T04:47:28.328Z,95.854
2017-05-05T04:50:22.583Z,95.873
2017-05-05T04:53:16.916Z,95.767
2017-05-05T04:56:11.204Z,95.868
2017-05-05T04:59:05.433Z,95.781
2017-05-05T05:01:59.806Z,95.833
2017-05-05T05:04:54.029Z,95.640
2017-05-05T05:07:48.445Z,95.693
2017-05-05T05:10:42.730Z,95.698
2017-05-05T05:13:36.965Z,95.636
2017-05-05T05:16:31.240Z,95.714
2017-05-05T05:19:25.496Z,95.848
2017-05-05T05:22:19.884Z,95.705
2017-05-05T05:25:14.185Z,95.480
2017-05-05T05:28:08.540Z,95.497
2017-05-05T05:31:02.766Z,95.325
2017-05-05T05:33:57.083Z,95.490
2017-05-05T05:36:51.434Z,95.494
2017-05-05T05:39:45.818Z,95.288
2017-05-05T05:42:40.188Z,95.218
2017-05-05T05:45:34.404Z,95.136
2017-05-05T05:48:28.637Z,95.041
2017-05-05T05:51:22.924Z,94.695
2017-05-05T05:54:17.233Z,94.910
2017-05-05T05:57:11.672Z,94.928
2017-05-05T06:00:05.971Z,94.863
2017-05-05T06:03:00.399Z,94.922
2017-05-05T06:05:54.768Z,94.839
2017-05-05T06:08:49.104Z,94.813
2017-05-05T06:11:43.726Z,94.779
2017-05-05T06:14:37.977Z,94.627
2017-05-05T06:17:32.308Z,94.519
2017-05-05T06:20:26.564Z,94.600
2017-05-05T06:23:20.847Z,94.332
2017-05-05T06:26:15.101Z,94.363
2017-05-05T06:29:11.223Z,94.171
2017-05-05T06:32:03.946Z,93.972
2017-05-05T06:34:58.233Z,93.989
2017-05-05T06:37:52.596Z,93.898
2017-05-05T06:40:46.876Z,94.061
2017-05-05T06:43:41.231Z,94.018
2017-05-05T06:46:35.551Z,93.893
2017-05-05T06:49:29.935Z,93.879
2017-05-05T06:52:24.252Z,93.474
2017-05-05T06:55:18.595Z,93.357
2017-05-05T06:58:13.047Z,93.361
2017-05-05T07:01:07.492Z,93.132
2017-05-05T07:04:01.826Z,92.840
2017-05-05T07:06:56.233Z,92.824
2017-05-05T07:09:50.638Z,92.598
2017-05-05T07:12:45.042Z,92.557
2017-05-05T07:15:39.410Z,92.442
2017-05-05T07:18:33.857Z,92.176
2017-05-05T07:21:28.227Z,92.162
2017-05-05T07:24:22.575Z,92.153
2017-05-05T07:27:17.013Z,91.875
2017-05-05T07:30:11.406Z,91.666
2017-05-05T07:33:05.884Z,91.612
2017-05-05T07:36:00.256Z,91.499
2017-05-05T07:38:54.659Z,91.294
2017-05-05T07:41:49.006Z,91.471
2017-05-05T07:44:43.390Z,91.536
2017-05-05T07:47:37.833Z,91.145
2017-05-05T07:50:32.227Z,91.401
2017-05-05T07:53:26.752Z,91.469
2017-05-05T07:56:22.925Z,91.285
2017-05-05T07:59:15.604Z,91.405
2017-05-05T08:02:09.913Z,91.175
2017-05-05T08:05:06.121Z,91.173
2017-05-05T08:08:00.458Z,91.057
2017-05-05T08:10:53.158Z,91.037
2017-05-05T08:13:47.569Z,91.044
2017-05-05T08:16:41.958Z,91.195
2017-05-05T08:19:36.301Z,91.096
2017-05-05T08:22:30.683Z,90.790
2017-05-05T08:25:25.146Z,90.827
2017-05-05T08:28:19.464Z,90.642
2017-05-05T08:31:13.723Z,90.531
2017-05-05T08:34:08.049Z,90.526
2017-05-05T08:37:02.471Z,90.341
2017-05-05T08:39:57.018Z,90.266
2017-05-05T08:42:51.521Z,90.274
2017-05-05T08:45:45.932Z,90.291
2017-05-05T08:48:40.475Z,90.241
2017-05-05T08:51:34.910Z,89.309
2017-05-05T08:54:29.297Z,89.803
2017-05-05T08:57:23.713Z,89.731
2017-05-05T09:00:18.116Z,89.804
2017-05-05T09:03:12.469Z,89.740
2017-05-05T09:06:06.849Z,89.346
2017-05-05T09:09:01.233Z,89.291
2017-05-05T09:11:55.585Z,89.510
2017-05-05T09:14:49.987Z,89.599
2017-05-05T09:17:44.404Z,89.571
2017-05-05T09:20:38.684Z,88.218
2017-05-05T09:23:33.045Z,88.944
2017-05-05T09:26:27.380Z,88.482
2017-05-05T09:29:21.799Z,88.029
2017-05-05T09:32:17.863Z,87.776
2017-05-05T09:35:10.577Z,86.695
2017-05-05T09:38:04.971Z,87.035
2017-05-05T09:40:59.408Z,86.943
2017-05-05T09:43:53.893Z,87.239
2017-05-05T09:46:48.272Z,87.348
2017-05-05T09:49:42.725Z,87.135
2017-05-05T09:52:37.212Z,86.894
2017-05-05T09:55:31.537Z,87.666
2017-05-05T09:58:25.995Z,87.732
2017-05-05T10:01:20.457Z,87.488
2017-05-05T10:04:14.745Z,86.920
2017-05-05T10:07:09.505Z,87.526
2017-05-05T10:10:03.947Z,87.711
2017-05-05T10:12:58.311Z,87.670
2017-05-05T10:15:52.887Z,87.594
2017-05-05T10:18:47.278Z,86.768
2017-05-05T10:21:41.747Z,86.742
2017-05-05T10:24:36.130Z,86.989
2017-05-05T10:27:30.554Z,86.775
2017-05-05T10:30:24.970Z,86.116
2017-05-05T10:33:19.433Z,86.338
2017-05-05T10:36:13.873Z,86.001
2017-05-05T10:39:08.256Z,86.287
2017-05-05T10:42:02.599Z,86.347
2017-05-05T10:44:58.833Z,85.983
2017-05-05T10:47:51.441Z,85.931
2017-05-05T10:50:45.843Z,85.956
2017-05-05T10:53:40.203Z,85.700
2017-05-05T10:56:34.704Z,86.088
2017-05-05T10:59:29.066Z,86.501
2017-05-05T11:02:23.572Z,86.412
2017-05-05T11:05:17.993Z,85.718
2017-05-05T11:08:12.535Z,85.498
2017-05-05T11:11:06.993Z,86.033
2017-05-05T11:14:01.547Z,85.447
2017-05-05T11:16:57.765Z,85.028
2017-05-05T11:19:51.164Z,83.848
2017-05-05T11:22:45.587Z,83.407
2017-05-05T11:25:40.043Z,84.286
2017-05-05T11:28:34.556Z,83.790
2017-05-05T11:31:28.985Z,83.973
2017-05-05T11:34:23.477Z,83.375
2017-05-05T11:37:17.992Z,83.851
2017-05-05T11:40:12.520Z,83.706
2017-05-05T11:43:07.113Z,83.848
2017-05-05T11:46:01.467Z,82.478
2017-05-05T11:48:56.126Z,83.423
2017-05-05T11:51:50.600Z,83.787
2017-05-05T11:54:45.205Z,82.640
2017-05-05T11:57:39.930Z,82.965
2017-05-05T12:00:34.394Z,82.860
2017-05-05T12:03:28.912Z,82.729
2017-05-05T12:06:23.470Z,82.905
2017-05-05T12:09:18.000Z,83.221
2017-05-05T12:12:12.565Z,80.406
2017-05-05T12:15:07.177Z,82.377
2017-05-05T12:18:01.787Z,82.622
2017-05-05T12:20:56.312Z,82.299
2017-05-05T12:23:50.902Z,82.659
2017-05-05T12:26:45.430Z,83.180
2017-05-05T12:29:39.832Z,82.197
2017-05-05T12:32:34.339Z,83.249
2017-05-05T12:35:28.817Z,83.088
2017-05-05T12:38:23.372Z,83.609
2017-05-05T12:41:19.634Z,83.484
2017-05-05T12:44:14.276Z,83.535
2017-05-05T12:47:07.076Z,83.787
2017-05-05T12:50:01.589Z,83.642
2017-05-05T12:52:55.962Z,83.763
2017-05-05T12:55:50.306Z,83.873
2017-05-05T12:58:44.801Z,83.682
2017-05-05T13:01:39.197Z,83.533
2017-05-05T13:04:33.576Z,82.862
2017-05-05T13:07:27.998Z,83.551
2017-05-05T13:10:22.405Z,83.294
2017-05-05T13:13:16.734Z,83.110
2017-05-05T13:16:11.274Z,83.745
2017-05-05T13:19:05.788Z,82.847
2017-05-05T13:22:00.279Z,83.666
2017-05-05T13:24:54.619Z,83.832
2017-05-05T13:27:49.163Z,83.814
2017-05-05T13:30:43.608Z,83.783
2017-05-05T13:33:39.837Z,83.549
2017-05-05T13:36:32.582Z,83.639
2017-05-05T13:39:27.160Z,82.923
2017-05-05T13:42:21.587Z,82.113
2017-05-05T13:45:15.992Z,83.742
2017-05-05T13:48:10.387Z,84.269
2017-05-05T13:51:05.025Z,83.772
2017-05-05T13:53:59.442Z,83.721
2017-05-05T13:56:54.210Z,83.155
2017-05-05T13:59:48.579Z,83.783
2017-05-05T14:02:43.041Z,84.000
2017-05-05T14:05:37.880Z,84.108
2017-05-05T14:08:32.393Z,84.351
2017-05-05T14:11:26.757Z,84.087
2017-05-05T14:14:21.279Z,84.416
2017-05-05T14:17:15.741Z,84.300
2017-05-05T14:20:10.235Z,84.264
2017-05-05T14:23:04.712Z,83.951
2017-05-05T14:25:59.285Z,83.986
2017-05-05T14:28:53.674Z,84.020
2017-05-05T14:31:48.601Z,83.385
2017-05-05T14:34:43.169Z,82.973
2017-05-05T14:37:37.608Z,83.443
2017-05-05T14:40:32.229Z,82.932
2017-05-05T14:43:26.757Z,81.758
2017-05-05T14:46:21.242Z,82.057
2017-05-05T14:49:15.743Z,81.533
2017-05-05T14:52:10.170Z,81.980
2017-05-05T14:55:04.625Z,81.615
2017-05-05T14:57:59.186Z,81.985
2017-05-05T15:00:53.671Z,81.408
2017-05-05T15:03:48.173Z,81.365
2017-05-05T15:06:42.635Z,81.070
2017-05-05T15:09:37.175Z,80.336
2017-05-05T15:12:33.469Z,80.258
2017-05-05T15:15:26.266Z,80.990
2017-05-05T15:18:22.472Z,79.766
2017-05-05T15:21:15.359Z,80.018
2017-05-05T15:24:09.886Z,80.298
2017-05-05T15:27:04.697Z,80.322
2017-05-05T15:29:59.177Z,79.819
2017-05-05T15:32:53.729Z,79.223
2017-05-05T15:35:48.187Z,78.852
2017-05-05T15:38:42.873Z,79.707
2017-05-05T15:41:37.358Z,80.179
2017-05-05T15:44:31.861Z,79.561
2017-05-05T15:47:26.382Z,79.845
2017-05-05T15:50:22.827Z,80.044
2017-05-05T15:53:15.640Z,79.465
2017-05-05T15:56:10.094Z,79.221
2017-05-05T15:59:04.716Z,80.020
2017-05-05T16:01:59.123Z,79.784
2017-05-05T16:04:53.588Z,79.918
2017-05-05T16:07:48.161Z,79.838
2017-05-05T16:10:42.663Z,78.440
2017-05-05T16:13:37.244Z,79.666
2017-05-05T16:16:31.694Z,79.470
2017-05-05T16:19:26.485Z,80.057
2017-05-05T16:22:20.967Z,80.458
2017-05-05T16:25:15.534Z,80.593
2017-05-05T16:28:09.941Z,79.920
2017-05-05T16:31:04.407Z,80.459
2017-05-05T16:33:58.959Z,80.673
2017-05-05T16:36:53.493Z,80.596
2017-05-05T16:39:47.953Z,80.689
2017-05-05T16:42:42.483Z,79.742
2017-05-05T16:45:37.018Z,80.736
2017-05-05T16:48:31.584Z,81.198
2017-05-05T16:51:26.163Z,81.235
2017-05-05T16:54:20.601Z,81.161
2017-05-05T16:57:16.749Z,80.869
2017-05-05T17:00:09.609Z,81.183
2017-05-05T17:03:04.109Z,80.706
2017-05-05T17:05:58.637Z,79.485
2017-05-05T17:08:53.107Z,80.184
2017-05-05T17:11:47.654Z,80.802
2017-05-05T17:14:42.171Z,81.024
2017-05-05T17:17:36.742Z,81.294
2017-05-05T17:20:31.264Z,81.872
2017-05-05T17:23:25.697Z,82.146
2017-05-05T17:26:20.073Z,81.666
2017-05-05T17:29:14.661Z,81.807
2017-05-05T17:32:09.359Z,81.784
2017-05-05T17:35:03.932Z,82.868
2017-05-05T17:37:58.438Z,82.634
2017-05-05T17:40:52.942Z,82.862
2017-05-05T17:43:47.427Z,83.415
2017-05-05T17:46:41.919Z,83.386
2017-05-05T17:49:36.264Z,83.312
2017-05-05T17:52:30.700Z,83.204
2017-05-05T17:55:25.142Z,83.775
2017-05-05T17:58:19.757Z,83.733
2017-05-05T18:01:14.196Z,83.338
2017-05-05T18:04:08.759Z,83.691
2017-05-05T18:07:03.205Z,83.921
2017-05-05T18:09:57.867Z,83.789
2017-05-05T18:12:52.260Z,83.904
2017-05-05T18:15:46.773Z,83.841
2017-05-05T18:18:43.047Z,84.080
2017-05-05T18:21:35.520Z,83.312
2017-05-05T18:24:29.983Z,84.049
2017-05-05T18:27:24.474Z,84.125
2017-05-05T18:30:18.884Z,83.854
2017-05-05T18:33:13.421Z,84.328
2017-05-05T18:36:07.954Z,84.324
2017-05-05T18:39:02.457Z,84.236
2017-05-05T18:41:56.875Z,84.621
2017-05-05T18:44:51.366Z,84.952
2017-05-05T18:47:45.748Z,84.767
2017-05-05T18:50:40.150Z,84.985
2017-05-05T18:53:34.585Z,84.821
2017-05-05T18:56:29.020Z,84.840
2017-05-05T18:59:23.579Z,84.903
2017-05-05T19:02:17.944Z,85.253
2017-05-05T19:05:12.388Z,85.304
2017-05-05T19:08:06.922Z,85.635
2017-05-05T19:11:01.306Z,85.675
2017-05-05T19:13:55.628Z,85.374
2017-05-05T19:16:50.114Z,85.292
2017-05-05T19:19:44.579Z,85.569
2017-05-05T19:22:38.953Z,85.619
2017-05-05T19:25:33.407Z,85.402
2017-05-05T19:28:27.864Z,85.863
2017-05-05T19:31:22.368Z,85.549
2017-05-05T19:34:18.620Z,85.725
2017-05-05T19:37:11.241Z,85.752
2017-05-05T19:40:05.714Z,85.519
2017-05-05T19:43:00.075Z,85.675
2017-05-05T19:45:54.494Z,85.863
2017-05-05T19:48:48.995Z,85.974
2017-05-05T19:51:43.428Z,86.239
2017-05-05T19:54:37.835Z,85.599
2017-05-05T19:57:32.248Z,85.943
2017-05-05T20:00:26.749Z,86.166
2017-05-05T20:03:21.109Z,86.249
2017-05-05T20:06:15.488Z,86.043
2017-05-05T20:09:09.886Z,85.907
2017-05-05T20:12:04.438Z,85.902
2017-05-05T20:14:58.918Z,86.345
2017-05-05T20:17:53.401Z,86.522
2017-05-05T20:20:47.831Z,86.178
2017-05-05T20:23:42.276Z,86.182
2017-05-05T20:26:36.668Z,86.151
2017-05-05T20:29:31.198Z,86.172
2017-05-05T20:32:25.611Z,86.297
2017-05-05T20:35:20.146Z,86.235
2017-05-05T20:38:14.615Z,86.322
2017-05-05T20:41:09.025Z,86.179
2017-05-05T20:44:03.486Z,86.411
2017-05-05T20:46:58.026Z,86.395
2017-05-05T20:49:52.636Z,86.124
2017-05-05T20:52:47.093Z,86.200
2017-05-05T20:55:41.643Z,86.321
2017-05-05T20:58:36.098Z,86.203
2017-05-05T21:01:30.658Z,86.424
2017-05-05T21:04:26.948Z,86.791
2017-05-05T21:07:19.537Z,86.766
2017-05-05T21:10:15.580Z,87.148
2017-05-05T21:13:08.369Z,87.122
2017-05-05T21:16:04.424Z,87.179
2017-05-05T21:18:57.177Z,87.638
2017-05-05T21:21:51.533Z,87.816
2017-05-05T21:24:47.662Z,88.231
2017-05-05T21:27:40.411Z,88.474
2017-05-05T21:30:34.808Z,88.871
2017-05-05T21:33:29.196Z,89.045
2017-05-05T21:36:23.594Z,89.271
2017-05-05T21:39:18.028Z,89.414
2017-05-05T21:42:12.459Z,89.493
2017-05-05T21:45:06.880Z,89.652
2017-05-05T21:48:01.266Z,89.878
2017-05-05T21:50:55.601Z,89.781
2017-05-05T21:53:50.049Z,89.830
2017-05-05T21:56:46.196Z,90.038
2017-05-05T21:59:40.553Z,89.942
2017-05-05T22:02:33.179Z,89.788
2017-05-05T22:05:27.549Z,89.760
2017-05-05T22:08:21.911Z,89.478
2017-05-05T22:11:16.258Z,89.708
2017-05-05T22:14:10.739Z,89.708
2017-05-05T22:17:05.133Z,89.648
2017-05-05T22:19:59.607Z,89.741
2017-05-05T22:22:54.073Z,89.931
2017-05-05T22:25:48.432Z,89.990
2017-05-05T22:28:42.902Z,89.960
2017-05-05T22:31:37.344Z,89.838
2017-05-05T22:34:31.725Z,89.861
2017-05-05T22:37:26.122Z,89.771
2017-05-05T22:40:20.448Z,89.707
2017-05-05T22:43:14.879Z,89.781
2017-05-05T22:46:09.368Z,89.673
2017-05-05T22:49:04.067Z,89.615
2017-05-05T22:51:58.513Z,89.467
2017-05-05T22:54:53.006Z,89.795
2017-05-05T22:57:47.418Z,89.876
2017-05-05T23:00:41.975Z,89.707
2017-05-05T23:03:36.357Z,89.633
2017-05-05T23:06:30.822Z,89.555
2017-05-05T23:09:25.217Z,89.597
2017-05-05T23:12:19.591Z,89.750
2017-05-05T23:15:13.994Z,89.935
2017-05-05T23:18:08.563Z,89.722
2017-05-05T23:26:51.727Z,90.231
2017-05-05T23:29:46.149Z,90.344
2017-05-05T23:32:40.499Z,90.408
2017-05-05T23:35:34.920Z,90.479
2017-05-05T23:38:29.305Z,90.463
2017-05-05T23:41:23.729Z,90.588
2017-05-05T23:47:13.394Z,90.656
2017-05-05T23:50:06.825Z,90.847
2017-05-05T23:53:01.196Z,90.750
2017-05-05T23:55:55.628Z,90.819
2017-05-05T23:58:49.994Z,90.702
